SVSA/SVZ METAR and TAF weather

Enter ICAO airport designator
Station Type Date Time Source
SVSA METAR 2019/05/15 21:00 UTC NOAA

SVSA 152100Z /////KT 9999 BKN020 33/// Q1008


Station Type Date Time Source
SVSA Decoded METAR 2019/05/15 21:00 UTC NOAA

San Antonio Del Tachira, Venezuela (SVSA) 07-51N 072-27W 378M
May 15, 2019 - 05:00 PM EDT / 2019.05.15 2100 UTC
Visibility: greater than 7 mile(s):0
Sky conditions: mostly cloudy
Temperature: 91 F (33 C)
Pressure (altimeter): 29.77 in. Hg (1008 hPa)
ob: SVSA 152100Z /////KT 9999 BKN020 33/// Q1008
cycle: 21

Station Type Date Time Source
SVSA TAF 2019/06/16 18:03 UTC NOAA

TAF TAF SVSA 161600Z 1618/1718 00000KT 9999 FEW020 TX33/1900Z TN22/0800Z
BECMG 1618/1622 14006KT 9000 DZ BKN020

Example: see airport list